Time;durP1;ratioP1;P1;durP2;ratioP2;P2;SDS_P1;SDS_P2;PMS_P1;PMS_P2;Temp;Humidity;BMP_temperature;BMP_pressure;BME280_temperature;BME280_humidity;BME280_pressure;Samples;Min_cycle;Max_cycle;Signal;HPM_P1;HPM_P2
2023/06/25 00:01:04;;;;;;;10.77;9.97;;;21.40;99.90;;;;;;5036721;28;20224;-63
2023/06/25 00:03:29;;;;;;;10.93;10.03;;;21.40;99.90;;;;;;5045844;28;20178;-63
2023/06/25 00:05:55;;;;;;;10.17;9.33;;;21.40;99.90;;;;;;5035547;28;20410;-63
2023/06/25 00:08:21;;;;;;;10.60;9.60;;;21.30;99.90;;;;;;5035713;28;20182;-63
2023/06/25 00:10:46;;;;;;;11.10;10.10;;;21.30;99.90;;;;;;5035397;28;20231;-63
2023/06/25 00:13:12;;;;;;;10.57;9.67;;;21.30;99.90;;;;;;5042439;28;20235;-63
2023/06/25 00:15:38;;;;;;;11.80;10.70;;;21.30;99.90;;;;;;5055587;28;20166;-62
2023/06/25 00:18:04;;;;;;;10.80;10.00;;;21.30;99.90;;;;;;5036975;28;20174;-62
2023/06/25 00:20:30;;;;;;;10.10;9.30;;;21.30;99.90;;;;;;5019570;28;20232;-62
2023/06/25 00:22:56;;;;;;;10.73;9.93;;;21.30;99.90;;;;;;5001354;28;20921;-63
2023/06/25 00:25:26;;;;;;;11.43;10.40;;;21.30;99.90;;;;;;5035539;28;20202;-63
2023/06/25 00:27:52;;;;;;;10.33;9.43;;;21.30;99.90;;;;;;5039029;28;20922;-63
2023/06/25 00:30:18;;;;;;;10.60;9.80;;;21.20;99.90;;;;;;5048347;28;20463;-61
2023/06/25 00:32:44;;;;;;;11.30;10.37;;;21.20;99.90;;;;;;5050425;28;20424;-63
2023/06/25 00:35:12;;;;;;;11.37;10.27;;;21.20;99.90;;;;;;5042917;28;20428;-63
2023/06/25 00:37:41;;;;;;;11.10;10.10;;;21.20;99.90;;;;;;5037578;28;20425;-61
2023/06/25 00:40:10;;;;;;;10.00;9.30;;;21.20;99.90;;;;;;5036010;28;20507;-63
2023/06/25 00:42:43;;;;;;;11.00;10.17;;;21.10;99.90;;;;;;5039774;28;20439;-63
2023/06/25 00:45:10;;;;;;;10.10;9.20;;;21.10;99.90;;;;;;5035387;28;20506;-63
2023/06/25 00:47:41;;;;;;;9.20;8.40;;;21.10;99.90;;;;;;5034900;28;20424;-63
2023/06/25 00:50:12;;;;;;;9.17;8.40;;;21.10;99.90;;;;;;5034837;28;20421;-63
2023/06/25 00:52:39;;;;;;;10.30;9.40;;;21.10;99.90;;;;;;5034328;28;20460;-61
2023/06/25 00:55:08;;;;;;;8.80;8.20;;;21.10;99.90;;;;;;5035242;28;20437;-62
2023/06/25 00:57:34;;;;;;;9.87;9.07;;;21.10;99.90;;;;;;5034912;28;20451;-63
2023/06/25 01:00:01;;;;;;;13.80;9.57;;;21.10;99.90;;;;;;5033763;28;20417;-63
2023/06/25 01:02:38;;;;;;;9.90;9.00;;;21.10;99.90;;;;;;5034799;28;20677;-62
2023/06/25 01:05:11;;;;;;;10.80;9.90;;;21.00;99.90;;;;;;5035598;28;20484;-63
2023/06/25 01:07:43;;;;;;;10.17;9.37;;;21.00;99.90;;;;;;5029020;28;20992;-63
2023/06/25 01:10:10;;;;;;;10.57;9.77;;;21.00;99.90;;;;;;5047922;28;20459;-63
2023/06/25 01:12:37;;;;;;;10.10;9.20;;;21.00;99.90;;;;;;5035160;28;20416;-63
2023/06/25 01:15:04;;;;;;;9.70;8.90;;;21.00;99.90;;;;;;5042352;28;20456;-63
2023/06/25 01:17:30;;;;;;;10.47;9.57;;;21.00;99.90;;;;;;5040549;28;20424;-63
2023/06/25 01:19:56;;;;;;;10.47;9.40;;;21.00;99.90;;;;;;5035079;28;20432;-63
2023/06/25 01:22:30;;;;;;;10.50;9.60;;;21.00;99.90;;;;;;5034994;28;20386;-63
2023/06/25 01:24:57;;;;;;;9.97;9.17;;;21.00;99.90;;;;;;5033829;28;20452;-63
2023/06/25 01:27:22;;;;;;;10.97;10.07;;;21.00;99.90;;;;;;5034707;28;20435;-64
2023/06/25 01:29:51;;;;;;;11.10;10.10;;;20.90;99.90;;;;;;5033774;28;20480;-62
2023/06/25 01:32:17;;;;;;;11.43;9.27;;;20.90;99.90;;;;;;5036797;28;20174;-62
2023/06/25 01:34:44;;;;;;;11.63;10.43;;;20.90;99.90;;;;;;5037668;28;20424;-62
2023/06/25 01:37:10;;;;;;;10.33;9.40;;;20.80;99.90;;;;;;5054537;28;20945;-62
2023/06/25 01:39:36;;;;;;;10.20;9.33;;;20.90;99.90;;;;;;5033893;28;20465;-63
2023/06/25 01:42:01;;;;;;;10.53;9.67;;;20.80;99.90;;;;;;5033408;28;20464;-62
2023/06/25 01:44:28;;;;;;;10.23;9.43;;;20.80;99.90;;;;;;5051768;28;20460;-62
2023/06/25 01:46:56;;;;;;;11.17;9.77;;;20.80;99.90;;;;;;5053144;28;20174;-62
2023/06/25 01:49:23;;;;;;;10.40;9.50;;;20.80;99.90;;;;;;5052370;28;20424;-62
2023/06/25 01:51:48;;;;;;;10.73;9.63;;;20.70;99.90;;;;;;5033597;28;20452;-63
2023/06/25 01:54:14;;;;;;;10.27;9.47;;;20.70;99.90;;;;;;5039018;28;20467;-63
2023/06/25 01:56:41;;;;;;;10.27;9.47;;;20.70;99.90;;;;;;5035412;28;20524;-63
2023/06/25 01:59:07;;;;;;;10.90;9.87;;;20.70;99.90;;;;;;5041039;28;20222;-63
2023/06/25 02:01:34;;;;;;;11.20;10.27;;;20.70;99.90;;;;;;5034500;28;20775;-63
2023/06/25 02:03:59;;;;;;;9.67;8.97;;;20.60;99.90;;;;;;5032048;28;20599;-62
2023/06/25 02:06:25;;;;;;;10.47;9.67;;;20.60;99.90;;;;;;5036106;28;20516;-63
2023/06/25 02:08:51;;;;;;;11.33;10.23;;;20.60;99.90;;;;;;5033637;28;20626;-63
2023/06/25 02:11:17;;;;;;;10.80;9.83;;;20.60;99.90;;;;;;5033875;28;20190;-63
2023/06/25 02:13:43;;;;;;;10.30;9.50;;;20.60;99.90;;;;;;5051621;28;20624;-61
2023/06/25 02:16:09;;;;;;;10.80;9.80;;;20.60;99.90;;;;;;5045585;28;20520;-63
2023/06/25 02:18:37;;;;;;;10.47;9.50;;;20.50;99.90;;;;;;5022521;28;20404;-63
2023/06/25 02:21:03;;;;;;;10.43;9.40;;;20.60;99.90;;;;;;5041100;28;20801;-63
2023/06/25 02:23:29;;;;;;;11.07;10.13;;;20.50;99.90;;;;;;5032957;28;20827;-63
2023/06/25 02:25:56;;;;;;;10.23;9.23;;;20.50;99.90;;;;;;5033502;28;20413;-62
2023/06/25 02:28:22;;;;;;;10.10;9.10;;;20.50;99.90;;;;;;5033266;28;20170;-63
2023/06/25 02:30:47;;;;;;;9.53;8.77;;;20.50;99.90;;;;;;5032024;28;20913;-63
2023/06/25 02:33:13;;;;;;;9.57;8.77;;;20.50;99.90;;;;;;5033760;28;20177;-63
2023/06/25 02:35:40;;;;;;;10.40;9.30;;;20.50;99.90;;;;;;5047659;28;20196;-63
2023/06/25 02:38:05;;;;;;;10.53;9.73;;;20.40;99.90;;;;;;5023061;28;20174;-62
2023/06/25 02:40:31;;;;;;;10.83;9.93;;;20.40;99.90;;;;;;5033584;28;20469;-63
2023/06/25 02:42:57;;;;;;;10.90;10.00;;;20.40;99.90;;;;;;5045403;28;20182;-63
2023/06/25 02:45:23;;;;;;;11.10;9.50;;;20.40;99.90;;;;;;5048456;28;20202;-63
2023/06/25 02:47:49;;;;;;;10.70;9.80;;;20.40;99.90;;;;;;5049173;28;20420;-62
2023/06/25 02:50:16;;;;;;;9.90;9.10;;;20.30;99.90;;;;;;5038699;28;20431;-63
2023/06/25 02:52:43;;;;;;;11.53;10.63;;;20.30;99.90;;;;;;5032935;28;20432;-61
2023/06/25 02:55:10;;;;;;;10.43;9.53;;;20.30;99.90;;;;;;5048617;28;20503;-61
2023/06/25 02:57:35;;;;;;;10.87;9.97;;;20.30;99.90;;;;;;5037468;28;20428;-61
2023/06/25 03:00:03;;;;;;;10.97;10.07;;;20.30;99.90;;;;;;5032295;28;20427;-61
2023/06/25 03:02:29;;;;;;;11.70;10.53;;;20.20;99.90;;;;;;5033770;28;20185;-61
2023/06/25 03:04:55;;;;;;;10.93;9.93;;;20.20;99.90;;;;;;5033445;28;20468;-61
2023/06/25 03:07:20;;;;;;;10.50;9.70;;;20.20;99.90;;;;;;5032597;28;20553;-61
2023/06/25 03:09:46;;;;;;;11.13;10.23;;;20.10;99.90;;;;;;5033955;28;20174;-61
2023/06/25 03:12:12;;;;;;;12.27;11.07;;;20.10;99.90;;;;;;5041684;28;20209;-61
2023/06/25 03:14:37;;;;;;;11.23;10.33;;;20.10;99.90;;;;;;5032633;28;20210;-61
2023/06/25 03:17:04;;;;;;;11.37;10.37;;;20.10;99.90;;;;;;5032573;28;20635;-61
2023/06/25 03:19:30;;;;;;;11.50;10.60;;;20.10;99.90;;;;;;5033188;28;20182;-61
2023/06/25 03:21:56;;;;;;;11.13;10.23;;;20.10;99.90;;;;;;5031489;28;20435;-61
2023/06/25 03:24:22;;;;;;;11.33;10.43;;;20.10;99.90;;;;;;5051678;28;20458;-61
2023/06/25 03:26:48;;;;;;;12.17;11.07;;;20.10;99.90;;;;;;5014013;28;20512;-61
2023/06/25 03:29:13;;;;;;;12.07;10.67;;;20.10;99.90;;;;;;5015056;28;20190;-61
2023/06/25 03:31:39;;;;;;;11.37;10.50;;;20.10;99.90;;;;;;5031745;28;20174;-61
2023/06/25 03:34:05;;;;;;;11.13;10.17;;;20.10;99.90;;;;;;5032499;28;20178;-61
2023/06/25 03:36:31;;;;;;;11.13;10.23;;;20.10;99.90;;;;;;5032121;28;20193;-61
2023/06/25 03:38:59;;;;;;;11.80;10.70;;;20.10;99.90;;;;;;5042243;28;20279;-61
2023/06/25 03:41:25;;;;;;;12.23;11.23;;;20.10;99.90;;;;;;5033594;28;20433;-61
2023/06/25 03:43:51;;;;;;;12.13;11.13;;;20.10;99.90;;;;;;5031451;28;20202;-61
2023/06/25 03:46:17;;;;;;;11.97;10.50;;;20.10;99.90;;;;;;5032018;28;20484;-61
2023/06/25 03:48:43;;;;;;;11.27;10.27;;;20.10;99.90;;;;;;5048152;28;20609;-61
2023/06/25 03:51:09;;;;;;;12.10;11.00;;;20.10;99.90;;;;;;5016217;28;20201;-61
2023/06/25 03:53:37;;;;;;;11.73;10.83;;;20.10;99.90;;;;;;5032116;28;20507;-61
2023/06/25 03:56:03;;;;;;;12.37;11.27;;;20.10;99.90;;;;;;5031812;28;20420;-61
2023/06/25 03:58:29;;;;;;;12.13;11.13;;;20.10;99.90;;;;;;5048295;28;20454;-61
2023/06/25 04:00:55;;;;;;;12.20;11.30;;;20.10;99.90;;;;;;5031513;28;20429;-61
2023/06/25 04:03:21;;;;;;;12.77;11.67;;;20.10;99.90;;;;;;5032137;28;20174;-61
2023/06/25 04:05:48;;;;;;;13.60;12.40;;;20.10;99.90;;;;;;5031815;28;20218;-61
2023/06/25 04:08:14;;;;;;;12.47;11.40;;;20.10;99.90;;;;;;5031106;28;20941;-61
2023/06/25 04:10:40;;;;;;;11.87;10.97;;;20.20;99.90;;;;;;5032025;28;20421;-61
2023/06/25 04:13:07;;;;;;;11.23;10.43;;;20.20;99.90;;;;;;5030902;28;20487;-61
2023/06/25 04:15:33;;;;;;;12.83;11.83;;;20.30;99.90;;;;;;5036590;28;20782;-61
2023/06/25 04:17:59;;;;;;;12.10;10.90;;;20.30;99.90;;;;;;5048197;28;20421;-61
2023/06/25 04:20:27;;;;;;;12.60;11.50;;;20.30;99.90;;;;;;5052179;28;20393;-61
2023/06/25 04:22:56;;;;;;;11.67;10.70;;;20.40;99.90;;;;;;5016995;28;20436;-61
2023/06/25 04:25:22;;;;;;;11.63;10.73;;;20.40;99.90;;;;;;5031222;28;20453;-61
2023/06/25 04:27:48;;;;;;;12.47;11.47;;;20.40;99.90;;;;;;5031585;28;20424;-61
2023/06/25 04:30:14;;;;;;;11.57;10.60;;;20.40;99.90;;;;;;5031549;28;20178;-61
2023/06/25 04:32:40;;;;;;;11.90;11.00;;;20.40;99.90;;;;;;5031948;28;20420;-61
2023/06/25 04:35:06;;;;;;;11.50;10.63;;;20.40;99.90;;;;;;5030963;28;20267;-61
2023/06/25 04:37:32;;;;;;;11.80;10.90;;;20.50;99.90;;;;;;5032906;28;20630;-61
2023/06/25 04:39:59;;;;;;;11.73;10.83;;;20.50;99.90;;;;;;5050339;28;20472;-61
2023/06/25 04:42:25;;;;;;;11.40;10.50;;;20.50;99.90;;;;;;5048504;28;20614;-61
2023/06/25 04:44:52;;;;;;;12.13;10.83;;;20.50;99.90;;;;;;5035466;28;20491;-61
2023/06/25 04:47:18;;;;;;;10.70;9.87;;;20.50;99.90;;;;;;5020904;28;20190;-61
2023/06/25 04:49:43;;;;;;;11.30;10.40;;;20.50;99.90;;;;;;5034467;28;20417;-61
2023/06/25 04:52:17;;;;;;;12.37;11.37;;;20.60;99.90;;;;;;5034503;28;20213;-61
2023/06/25 04:54:42;;;;;;;12.60;10.90;;;20.60;99.90;;;;;;5035133;28;20179;-61
2023/06/25 04:57:09;;;;;;;11.50;10.53;;;20.60;99.90;;;;;;5034607;28;20450;-61
2023/06/25 04:59:35;;;;;;;11.30;10.40;;;20.70;99.90;;;;;;5036493;28;20563;-61
2023/06/25 05:02:01;;;;;;;12.03;11.03;;;20.70;99.90;;;;;;5034203;28;20428;-61
2023/06/25 05:04:27;;;;;;;13.13;11.93;;;20.70;99.90;;;;;;5043557;28;20198;-61
2023/06/25 05:06:52;;;;;;;12.97;11.90;;;20.80;99.90;;;;;;5035999;28;20220;-61
2023/06/25 05:09:19;;;;;;;12.37;11.27;;;20.80;99.90;;;;;;5034581;28;20186;-61
2023/06/25 05:11:45;;;;;;;13.20;12.10;;;20.80;99.90;;;;;;5016855;28;20780;-61
2023/06/25 05:14:11;;;;;;;12.47;11.57;;;20.90;99.90;;;;;;5034826;28;20170;-61
2023/06/25 05:16:36;;;;;;;12.27;11.20;;;20.90;99.90;;;;;;5053338;28;20209;-61
2023/06/25 05:19:02;;;;;;;12.77;11.67;;;21.00;99.90;;;;;;5048320;28;20715;-61
2023/06/25 05:21:28;;;;;;;12.90;11.70;;;21.00;99.90;;;;;;5047983;28;20175;-61
2023/06/25 05:24:00;;;;;;;13.00;12.00;;;21.10;99.90;;;;;;5016598;28;20535;-61
2023/06/25 05:26:26;;;;;;;12.30;11.30;;;21.10;99.90;;;;;;5037305;28;20182;-61
2023/06/25 05:28:51;;;;;;;13.30;12.00;;;21.20;99.90;;;;;;5041614;28;20807;-61
2023/06/25 05:31:17;;;;;;;13.53;12.33;;;21.20;99.90;;;;;;5034213;28;20409;-61
2023/06/25 05:33:43;;;;;;;12.80;11.80;;;21.20;99.90;;;;;;5034146;28;20189;-61
2023/06/25 05:36:09;;;;;;;12.57;11.63;;;21.30;99.90;;;;;;5036402;28;20178;-61
2023/06/25 05:38:35;;;;;;;12.93;11.93;;;21.30;99.90;;;;;;5034395;28;20208;-61
2023/06/25 05:41:01;;;;;;;13.00;11.90;;;21.40;99.90;;;;;;5041857;28;20947;-61
2023/06/25 05:43:26;;;;;;;11.87;10.90;;;21.50;99.90;;;;;;5050650;28;20527;-62
2023/06/25 05:45:52;;;;;;;13.87;12.67;;;21.50;99.90;;;;;;5053319;28;20292;-61
2023/06/25 05:48:18;;;;;;;13.60;12.40;;;21.60;99.90;;;;;;5035066;28;20171;-61
2023/06/25 05:50:44;;;;;;;13.77;12.70;;;21.60;99.90;;;;;;5035723;28;20178;-61
2023/06/25 05:53:09;;;;;;;14.57;13.27;;;21.70;99.90;;;;;;5041755;28;20174;-61
2023/06/25 05:55:35;;;;;;;13.70;12.40;;;21.70;99.90;;;;;;5047708;28;20173;-61
2023/06/25 05:58:01;;;;;;;14.77;13.47;;;21.80;99.90;;;;;;5048884;28;20679;-60
2023/06/25 06:00:26;;;;;;;13.70;12.50;;;21.90;99.90;;;;;;5045091;28;20170;-60
2023/06/25 06:02:52;;;;;;;14.47;13.13;;;22.00;99.90;;;;;;5037490;28;20525;-61
2023/06/25 06:05:18;;;;;;;14.83;13.53;;;22.10;99.90;;;;;;5048622;28;20657;-61
2023/06/25 06:07:43;;;;;;;14.17;12.83;;;22.10;99.90;;;;;;5038012;28;20221;-61
2023/06/25 06:10:11;;;;;;;13.33;12.23;;;22.20;99.90;;;;;;5048259;28;20173;-61
2023/06/25 06:12:36;;;;;;;12.83;11.73;;;22.30;99.90;;;;;;5048528;28;20186;-61
2023/06/25 06:15:02;;;;;;;12.90;11.70;;;22.30;99.90;;;;;;5050111;28;20451;-61
2023/06/25 06:17:28;;;;;;;12.07;11.17;;;22.30;99.90;;;;;;5033462;28;20624;-61
2023/06/25 06:19:53;;;;;;;13.13;11.93;;;22.40;99.90;;;;;;5047537;28;20169;-61
2023/06/25 06:22:19;;;;;;;13.17;12.07;;;22.50;99.90;;;;;;5018143;28;20170;-60
2023/06/25 06:24:45;;;;;;;13.33;12.13;;;22.60;99.90;;;;;;5033326;28;20316;-61
2023/06/25 06:27:11;;;;;;;12.10;11.10;;;22.70;99.90;;;;;;5033121;28;20178;-61
2023/06/25 06:29:36;;;;;;;12.17;11.10;;;22.70;99.90;;;;;;5038103;28;20260;-62
2023/06/25 06:32:02;;;;;;;14.93;12.87;;;22.80;99.90;;;;;;5044578;28;20529;-65
2023/06/25 06:34:28;;;;;;;12.30;11.20;;;22.90;99.90;;;;;;5042181;28;20621;-62
2023/06/25 06:36:53;;;;;;;12.50;11.40;;;23.10;99.90;;;;;;5027099;28;20227;-61
2023/06/25 06:39:19;;;;;;;14.57;12.63;;;23.30;99.90;;;;;;5046704;28;20286;-63
2023/06/25 06:41:45;;;;;;;10.43;9.73;;;23.50;99.90;;;;;;5039535;28;20183;-65
2023/06/25 06:44:15;;;;;;;11.97;11.03;;;23.70;99.90;;;;;;5046992;28;20193;-63
2023/06/25 06:46:44;;;;;;;14.90;13.30;;;23.90;99.90;;;;;;5041549;28;20254;-63
2023/06/25 06:49:10;;;;;;;14.50;13.00;;;24.00;99.90;;;;;;5045994;28;20429;-63
2023/06/25 06:51:37;;;;;;;321.73;286.30;;;24.20;99.90;;;;;;5036973;28;20479;-63
2023/06/25 06:54:04;;;;;;;45.10;36.77;;;24.30;99.90;;;;;;5034591;28;20421;-62
2023/06/25 06:56:30;;;;;;;28.57;22.37;;;24.30;99.90;;;;;;5015284;28;20942;-63
2023/06/25 06:58:56;;;;;;;68.40;56.23;;;24.40;99.90;;;;;;5034990;28;20421;-65
2023/06/25 07:01:22;;;;;;;54.33;45.40;;;24.50;99.90;;;;;;5045497;28;20437;-64
2023/06/25 07:03:47;;;;;;;46.03;37.53;;;24.50;99.90;;;;;;5047316;28;20177;-64
2023/06/25 07:06:13;;;;;;;34.43;30.77;;;24.70;99.90;;;;;;5036368;28;20178;-63
2023/06/25 07:08:39;;;;;;;42.87;34.60;;;24.80;99.90;;;;;;5037867;28;20217;-63
2023/06/25 07:11:04;;;;;;;21.43;19.53;;;24.80;99.90;;;;;;5032015;28;20333;-63
2023/06/25 07:13:31;;;;;;;33.27;29.80;;;24.90;99.90;;;;;;5050541;28;20178;-64
2023/06/25 07:15:57;;;;;;;18.90;17.13;;;25.00;99.90;;;;;;5040180;28;20277;-64
2023/06/25 07:18:23;;;;;;;33.57;28.10;;;25.20;99.90;;;;;;5043481;28;20554;-64
2023/06/25 07:20:50;;;;;;;29.17;26.20;;;25.30;99.90;;;;;;5039245;28;20181;-63
2023/06/25 07:23:16;;;;;;;18.93;17.10;;;25.40;99.90;;;;;;5036805;28;20177;-63
2023/06/25 07:25:42;;;;;;;18.87;16.77;;;25.50;99.90;;;;;;5021917;28;20468;-64
2023/06/25 07:28:09;;;;;;;115.63;99.60;;;25.60;99.90;;;;;;5037504;28;20182;-62
2023/06/25 07:30:34;;;;;;;127.83;105.13;;;25.60;99.90;;;;;;5044212;28;20498;-71
2023/06/25 07:33:00;;;;;;;30.80;27.63;;;25.70;99.90;;;;;;5043352;28;20460;-64
2023/06/25 07:35:26;;;;;;;26.23;23.57;;;25.80;99.00;;;;;;5036224;28;20674;-68
2023/06/25 07:37:52;;;;;;;14.80;13.40;;;25.90;98.00;;;;;;5035962;28;20176;-76
2023/06/25 07:40:17;;;;;;;9.73;8.93;;;26.00;98.80;;;;;;5051055;28;20235;-76
2023/06/25 07:42:43;;;;;;;9.37;8.57;;;26.10;98.20;;;;;;5038640;28;20521;-64
2023/06/25 07:45:09;;;;;;;9.30;8.70;;;26.20;98.10;;;;;;5051164;28;20216;-64
2023/06/25 07:47:35;;;;;;;9.90;9.10;;;26.30;97.90;;;;;;5039700;28;20177;-64
2023/06/25 07:50:01;;;;;;;9.07;8.37;;;26.40;96.40;;;;;;5041441;28;20524;-64
2023/06/25 07:52:27;;;;;;;8.20;7.70;;;26.40;92.10;;;;;;5031507;28;20560;-63
2023/06/25 07:54:53;;;;;;;8.47;7.87;;;26.40;90.90;;;;;;5032442;28;20615;-64
2023/06/25 07:57:19;;;;;;;9.37;8.60;;;26.50;91.70;;;;;;5031563;28;20544;-64
2023/06/25 07:59:45;;;;;;;8.80;8.20;;;26.50;90.00;;;;;;5049830;28;20415;-64
2023/06/25 08:02:11;;;;;;;7.40;7.00;;;26.70;89.50;;;;;;5051797;28;20610;-64
2023/06/25 08:04:37;;;;;;;8.63;8.03;;;26.80;90.40;;;;;;5050789;28;20535;-64
2023/06/25 08:07:03;;;;;;;9.43;8.83;;;26.90;91.80;;;;;;5044335;28;20228;-64
2023/06/25 08:09:29;;;;;;;9.20;8.60;;;27.10;91.10;;;;;;5032515;28;20504;-64
2023/06/25 08:11:55;;;;;;;10.10;9.20;;;27.20;91.90;;;;;;5032077;28;20516;-64
2023/06/25 08:14:20;;;;;;;8.83;8.23;;;27.30;91.70;;;;;;5035249;28;20174;-64
2023/06/25 08:16:46;;;;;;;9.73;8.87;;;27.40;92.40;;;;;;5037337;28;20315;-63
2023/06/25 08:19:12;;;;;;;9.17;8.50;;;27.60;91.40;;;;;;5055253;28;20180;-64
2023/06/25 08:21:38;;;;;;;9.00;8.30;;;27.70;89.40;;;;;;5046701;28;20178;-64
2023/06/25 08:24:04;;;;;;;8.90;8.30;;;27.80;85.00;;;;;;5036006;28;20267;-64
2023/06/25 08:26:30;;;;;;;10.30;9.60;;;27.90;86.20;;;;;;5035049;28;20231;-64
2023/06/25 08:28:55;;;;;;;11.80;10.90;;;27.90;82.20;;;;;;5035889;28;20500;-64
2023/06/25 08:31:21;;;;;;;8.93;8.23;;;28.00;83.00;;;;;;5035390;28;20268;-64
2023/06/25 08:33:47;;;;;;;9.80;9.03;;;28.00;81.70;;;;;;5035189;28;20166;-64
2023/06/25 08:36:13;;;;;;;8.73;8.20;;;28.10;81.70;;;;;;5034776;28;20769;-64
2023/06/25 08:38:39;;;;;;;10.00;9.30;;;28.20;80.50;;;;;;5035142;28;20574;-64
2023/06/25 08:41:04;;;;;;;10.10;9.40;;;28.20;80.90;;;;;;5018243;28;20226;-64
2023/06/25 08:43:31;;;;;;;10.10;9.50;;;28.30;78.90;;;;;;5034968;28;20607;-64
2023/06/25 08:45:56;;;;;;;10.00;9.20;;;28.30;78.90;;;;;;5035308;28;20225;-64
2023/06/25 08:48:26;;;;;;;9.40;8.80;;;28.40;80.20;;;;;;5035320;28;20409;-64
2023/06/25 08:50:58;;;;;;;9.30;8.47;;;28.50;80.10;;;;;;5034727;28;20224;-61
2023/06/25 08:53:26;;;;;;;9.63;9.03;;;28.70;79.50;;;;;;5050128;28;20428;-64
2023/06/25 08:55:54;;;;;;;9.27;8.67;;;28.70;78.00;;;;;;5044092;28;20427;-64
2023/06/25 08:58:21;;;;;;;9.60;8.83;;;28.80;75.90;;;;;;5034894;28;20397;-63
2023/06/25 09:00:47;;;;;;;9.03;8.43;;;29.00;76.00;;;;;;5034930;28;20421;-64
2023/06/25 09:03:13;;;;;;;8.30;7.80;;;29.00;77.80;;;;;;5016679;28;20421;-63
2023/06/25 09:05:38;;;;;;;9.17;8.57;;;29.10;76.30;;;;;;5034797;28;20445;-64
2023/06/25 09:08:05;;;;;;;8.80;8.17;;;29.20;75.60;;;;;;5035242;28;20560;-64
2023/06/25 09:10:31;;;;;;;9.53;8.93;;;29.30;75.80;;;;;;5034060;28;20258;-64
2023/06/25 09:13:01;;;;;;;9.57;8.87;;;29.40;75.90;;;;;;5034091;28;20924;-64
2023/06/25 09:15:27;;;;;;;10.80;9.93;;;29.40;76.00;;;;;;5034035;28;20433;-63
2023/06/25 09:17:56;;;;;;;8.47;7.97;;;29.50;75.00;;;;;;5035084;28;20389;-64
2023/06/25 09:20:22;;;;;;;9.20;8.50;;;29.60;73.10;;;;;;5034037;28;20178;-64
2023/06/25 09:22:49;;;;;;;9.20;8.60;;;29.70;72.80;;;;;;5034412;28;20452;-64
2023/06/25 09:25:15;;;;;;;10.00;9.20;;;29.80;72.50;;;;;;5035418;28;20468;-63
2023/06/25 09:27:41;;;;;;;12.27;11.20;;;29.80;73.90;;;;;;5037180;28;20404;-64
2023/06/25 09:30:10;;;;;;;10.67;9.97;;;29.90;74.10;;;;;;5052834;28;20177;-64
2023/06/25 09:32:50;;;;;;;8.80;8.30;;;30.00;73.60;;;;;;5041687;28;20166;-63
2023/06/25 09:35:29;;;;;;;8.17;7.67;;;30.00;70.40;;;;;;5039838;28;20421;-64
2023/06/25 09:37:55;;;;;;;9.10;8.50;;;30.10;72.70;;;;;;5037567;28;20428;-69
2023/06/25 09:40:21;;;;;;;9.90;9.10;;;30.20;71.00;;;;;;5038093;28;20562;-78
2023/06/25 09:42:54;;;;;;;8.80;8.20;;;30.20;70.70;;;;;;5033225;28;20184;-68
2023/06/25 09:45:22;;;;;;;9.10;8.50;;;30.30;71.20;;;;;;5033373;28;20928;-63
2023/06/25 09:47:50;;;;;;;8.67;8.17;;;30.40;68.80;;;;;;5033638;28;20425;-64
2023/06/25 09:50:19;;;;;;;8.90;8.40;;;30.40;70.20;;;;;;5032920;28;20429;-63
2023/06/25 09:52:59;;;;;;;10.67;9.97;;;30.30;63.50;;;;;;5031861;28;20563;-63
2023/06/25 09:55:27;;;;;;;9.20;8.60;;;30.40;71.00;;;;;;5031123;28;20425;-64
2023/06/25 09:57:55;;;;;;;9.57;9.07;;;30.50;68.50;;;;;;5033302;28;20496;-64
2023/06/25 10:00:22;;;;;;;9.90;9.20;;;30.50;65.80;;;;;;5033044;28;20443;-66
2023/06/25 10:02:49;;;;;;;11.83;11.10;;;30.60;65.50;;;;;;5041280;28;20417;-66
2023/06/25 10:05:15;;;;;;;9.40;8.83;;;30.60;66.70;;;;;;5032706;28;20453;-62
2023/06/25 10:07:41;;;;;;;9.63;9.03;;;30.50;66.00;;;;;;5033432;28;20483;-66
2023/06/25 10:10:17;;;;;;;8.63;8.03;;;30.50;66.50;;;;;;5033975;28;20416;-66
2023/06/25 10:12:43;;;;;;;46.17;42.07;;;30.50;67.70;;;;;;5039507;28;20511;-64
2023/06/25 10:15:09;;;;;;;74.23;67.23;;;30.40;65.50;;;;;;5049208;28;20503;-63
2023/06/25 10:17:35;;;;;;;153.07;138.70;;;30.40;67.60;;;;;;5052905;28;20163;-64
2023/06/25 10:20:04;;;;;;;37.27;34.17;;;30.40;69.30;;;;;;5034184;28;20174;-64
2023/06/25 10:22:33;;;;;;;11.33;10.53;;;30.40;71.80;;;;;;5032851;28;20247;-63
2023/06/25 10:24:59;;;;;;;8.87;8.20;;;30.60;68.50;;;;;;5040736;28;20475;-62
2023/06/25 10:27:24;;;;;;;8.33;7.83;;;30.60;66.50;;;;;;5045290;28;20429;-64
2023/06/25 10:29:51;;;;;;;8.50;7.90;;;30.70;67.80;;;;;;5042765;28;20174;-64
2023/06/25 10:32:21;;;;;;;8.87;8.37;;;30.80;65.80;;;;;;5051107;28;20181;-64
2023/06/25 10:34:54;;;;;;;8.53;7.73;;;30.90;64.80;;;;;;5036880;28;20487;-63
2023/06/25 10:37:20;;;;;;;10.03;9.40;;;30.80;67.90;;;;;;5038858;28;20417;-63
2023/06/25 10:39:46;;;;;;;10.83;10.20;;;30.80;69.00;;;;;;5045387;28;20458;-63
2023/06/25 10:42:13;;;;;;;10.63;9.83;;;30.80;66.00;;;;;;5056825;28;20177;-63
2023/06/25 10:44:40;;;;;;;9.27;8.77;;;30.90;67.00;;;;;;5048882;28;20201;-63
2023/06/25 10:47:08;;;;;;;9.63;9.03;;;30.90;64.10;;;;;;5049967;28;20482;-64
2023/06/25 10:49:36;;;;;;;10.10;9.50;;;30.90;65.50;;;;;;5051756;28;20424;-63
2023/06/25 10:52:04;;;;;;;9.93;9.33;;;31.10;65.20;;;;;;5063718;28;20411;-64
2023/06/25 10:54:33;;;;;;;43.20;39.20;;;31.10;60.60;;;;;;5051785;28;20431;-64
2023/06/25 10:57:11;;;;;;;31.77;28.97;;;31.10;61.00;;;;;;5063036;28;20867;-64
2023/06/25 10:59:38;;;;;;;11.03;10.33;;;31.20;64.80;;;;;;5059487;28;20447;-64
2023/06/25 11:02:31;;;;;;;10.87;10.17;;;31.20;63.70;;;;;;5051983;28;20431;-65
2023/06/25 11:04:58;;;;;;;8.33;7.83;;;31.30;63.30;;;;;;5053457;28;20475;-68
2023/06/25 11:07:25;;;;;;;10.40;9.60;;;31.30;66.50;;;;;;5065131;28;20914;-67
2023/06/25 11:09:58;;;;;;;9.17;8.67;;;31.40;63.50;;;;;;5064874;28;20840;-68
2023/06/25 11:12:25;;;;;;;8.50;7.90;;;31.60;66.90;;;;;;5071892;28;20503;-64
2023/06/25 11:14:51;;;;;;;8.93;8.33;;;31.60;63.80;;;;;;5054145;28;20453;-63
2023/06/25 11:17:17;;;;;;;9.40;8.80;;;31.60;63.60;;;;;;5055658;28;20411;-64
2023/06/25 11:19:49;;;;;;;9.80;9.10;;;31.60;65.50;;;;;;5072526;28;20166;-65
2023/06/25 11:22:15;;;;;;;9.80;9.00;;;31.50;62.70;;;;;;5068832;28;20443;-62
2023/06/25 11:24:41;;;;;;;9.97;9.30;;;31.30;67.00;;;;;;5068921;28;20493;-63
2023/06/25 11:27:07;;;;;;;10.80;10.10;;;31.30;69.20;;;;;;5065183;28;20617;-63
2023/06/25 11:29:36;;;;;;;11.20;10.40;;;31.20;69.20;;;;;;5052920;28;20641;-62
2023/06/25 11:32:09;;;;;;;9.00;8.50;;;31.10;67.00;;;;;;5061351;28;20260;-63
2023/06/25 11:34:35;;;;;;;9.03;8.50;;;31.00;63.30;;;;;;5062962;28;20404;-63
2023/06/25 11:37:15;;;;;;;10.40;9.50;;;30.90;66.20;;;;;;5053102;28;20475;-63
2023/06/25 11:39:49;;;;;;;9.70;9.10;;;31.00;68.00;;;;;;5047570;28;20466;-62
2023/06/25 11:42:16;;;;;;;8.67;8.17;;;31.00;67.20;;;;;;5034126;28;20491;-63
2023/06/25 11:44:43;;;;;;;10.20;9.60;;;31.00;66.10;;;;;;5037670;28;20449;-63
2023/06/25 11:47:10;;;;;;;9.50;9.00;;;31.00;66.10;;;;;;5050895;28;20435;-63
2023/06/25 11:49:38;;;;;;;10.93;10.23;;;31.00;70.10;;;;;;5039650;28;20810;-63
2023/06/25 11:52:04;;;;;;;12.43;11.43;;;30.90;69.50;;;;;;5041901;28;20728;-63
2023/06/25 11:54:29;;;;;;;13.93;13.00;;;30.80;71.40;;;;;;5044269;28;20427;-63
2023/06/25 11:56:55;;;;;;;17.30;15.90;;;30.60;67.60;;;;;;5047465;28;20416;-63
2023/06/25 11:59:21;;;;;;;10.00;9.40;;;30.60;70.30;;;;;;5050389;28;20190;-63
2023/06/25 12:01:47;;;;;;;11.00;10.30;;;30.40;70.10;;;;;;5059021;28;20173;-63
2023/06/25 12:04:12;;;;;;;10.77;10.07;;;30.30;72.90;;;;;;5048038;28;20200;-63
2023/06/25 12:06:41;;;;;;;10.33;9.73;;;30.20;73.90;;;;;;5037970;28;20181;-63
2023/06/25 12:09:07;;;;;;;9.77;9.17;;;30.20;73.70;;;;;;5038737;28;20404;-63
2023/06/25 12:11:33;;;;;;;10.13;9.40;;;30.20;75.00;;;;;;5038132;28;20653;-63
2023/06/25 12:13:58;;;;;;;11.43;10.73;;;30.20;70.50;;;;;;5040966;28;20192;-63
2023/06/25 12:16:24;;;;;;;10.37;9.70;;;30.30;73.30;;;;;;5055434;28;20182;-63
2023/06/25 12:18:50;;;;;;;10.00;9.30;;;30.30;73.10;;;;;;5053402;28;20170;-71
2023/06/25 12:21:16;;;;;;;10.30;9.60;;;30.30;67.70;;;;;;5057451;28;20170;-64
2023/06/25 12:23:41;;;;;;;9.97;9.07;;;30.40;69.70;;;;;;5048788;28;20655;-66
2023/06/25 12:26:07;;;;;;;9.43;8.93;;;30.40;64.50;;;;;;5047010;28;20209;-64
2023/06/25 12:28:33;;;;;;;10.03;9.33;;;30.20;65.30;;;;;;5055962;28;20166;-64
2023/06/25 12:30:58;;;;;;;9.53;8.87;;;30.00;63.90;;;;;;5044004;28;20606;-63
2023/06/25 12:33:24;;;;;;;8.83;8.23;;;30.00;65.30;;;;;;5041116;28;20178;-63